Time;durP1;ratioP1;P1;durP2;ratioP2;P2;SDS_P1;SDS_P2;PMS_P1;PMS_P2;Temp;Humidity;BMP_temperature;BMP_pressure;BME280_temperature;BME280_humidity;BME280_pressure;Samples;Min_cycle;Max_cycle;Signal;HPM_P1;HPM_P2
2021/08/19 00:00:14;;;;;;;3.13;2.77;;;;;;;16.10;85.23;100329.47;5062023;28;20217;-71
2021/08/19 00:02:42;;;;;;;3.80;3.10;;;;;;;16.11;84.79;100327.69;5063549;28;20209;-72
2021/08/19 00:05:09;;;;;;;3.60;3.07;;;;;;;16.11;84.77;100328.53;5055416;28;20212;-71
2021/08/19 00:07:36;;;;;;;3.27;2.53;;;;;;;16.12;85.09;100332.03;5056322;28;20201;-71
2021/08/19 00:10:03;;;;;;;3.47;2.87;;;;;;;16.13;84.86;100331.09;5067957;28;20596;-70
2021/08/19 00:12:29;;;;;;;3.23;2.90;;;;;;;16.15;84.87;100329.25;5060990;28;20775;-70
2021/08/19 00:14:56;;;;;;;4.00;2.93;;;;;;;16.17;85.12;100330.84;5064649;28;20200;-71
2021/08/19 00:17:22;;;;;;;3.47;2.80;;;;;;;16.18;85.02;100326.44;5060237;28;20195;-71
2021/08/19 00:19:50;;;;;;;3.10;2.80;;;;;;;16.21;84.82;100335.00;5062539;28;20210;-70
2021/08/19 00:22:16;;;;;;;3.07;2.73;;;;;;;16.22;84.94;100338.50;5060920;28;20220;-71
2021/08/19 00:24:43;;;;;;;3.17;2.47;;;;;;;16.24;84.84;100331.38;5066509;28;20751;-71
2021/08/19 00:27:09;;;;;;;5.37;2.90;;;;;;;16.22;85.50;100341.13;5061162;28;20204;-71
2021/08/19 00:29:36;;;;;;;3.50;2.53;;;;;;;16.25;84.61;100333.06;5059975;28;20218;-71
2021/08/19 00:32:04;;;;;;;3.70;2.77;;;;;;;16.24;84.83;100332.22;5062259;28;20788;-71
2021/08/19 00:34:30;;;;;;;3.07;2.73;;;;;;;16.25;85.12;100325.16;5059676;28;20680;-71
2021/08/19 00:36:58;;;;;;;3.60;2.47;;;;;;;16.25;84.83;100323.41;5058584;28;20212;-71
2021/08/19 00:39:24;;;;;;;7.30;2.50;;;;;;;16.26;85.36;100324.25;5062328;28;20205;-72
2021/08/19 00:41:51;;;;;;;4.53;2.70;;;;;;;16.27;84.95;100329.41;5068816;28;20226;-71
2021/08/19 00:44:17;;;;;;;3.53;2.70;;;;;;;16.27;85.28;100321.53;5059649;28;20210;-70
2021/08/19 00:46:45;;;;;;;3.33;2.80;;;;;;;16.28;85.26;100312.69;5062516;28;20211;-71
2021/08/19 00:49:12;;;;;;;4.43;2.97;;;;;;;16.30;84.95;100324.91;5062316;28;20219;-71
2021/08/19 00:51:40;;;;;;;2.90;2.50;;;;;;;16.28;85.39;100323.22;5054717;28;20219;-71
2021/08/19 00:54:10;;;;;;;3.87;2.63;;;;;;;16.31;85.25;100326.63;5063174;28;20685;-71
2021/08/19 00:56:37;;;;;;;2.70;2.37;;;;;;;16.30;85.29;100323.13;5060295;28;20213;-71
2021/08/19 00:59:05;;;;;;;5.00;2.93;;;;;;;16.31;85.38;100316.09;5061556;28;20294;-70
2021/08/19 01:01:32;;;;;;;2.97;2.67;;;;;;;16.31;85.46;100318.75;5061458;28;20219;-71
2021/08/19 01:03:59;;;;;;;2.97;2.27;;;;;;;16.31;85.31;100322.22;5060699;28;20302;-71
2021/08/19 01:06:26;;;;;;;2.70;2.30;;;;;;;16.32;85.14;100320.41;5058149;28;20217;-70
2021/08/19 01:08:54;;;;;;;2.60;2.30;;;;;;;16.31;85.54;100319.59;5063068;28;20209;-71
2021/08/19 01:11:22;;;;;;;3.10;2.30;;;;;;;16.32;85.43;100318.63;5060936;28;20228;-70
2021/08/19 01:13:50;;;;;;;3.17;2.80;;;;;;;16.32;85.46;100317.78;5066634;28;20210;-70
2021/08/19 01:16:18;;;;;;;2.73;2.30;;;;;;;16.28;85.35;100323.22;5064237;28;20203;-70
2021/08/19 01:18:46;;;;;;;3.60;2.57;;;;;;;16.28;85.87;100323.22;5061585;28;20205;-70
2021/08/19 01:21:14;;;;;;;3.23;2.70;;;;;;;16.28;86.03;100323.22;5066791;28;20228;-71
2021/08/19 01:23:41;;;;;;;3.27;2.57;;;;;;;16.28;86.11;100322.38;5064058;28;20576;-71
2021/08/19 01:26:10;;;;;;;3.30;2.50;;;;;;;16.26;86.14;100322.44;5069435;28;20779;-71
2021/08/19 01:28:39;;;;;;;2.33;2.13;;;;;;;16.27;86.38;100320.69;5064773;28;20199;-71
2021/08/19 01:31:06;;;;;;;3.40;2.23;;;;;;;16.25;86.34;100317.28;5060294;28;20226;-71
2021/08/19 01:33:33;;;;;;;2.90;2.30;;;;;;;16.23;86.59;100319.13;5064864;28;20206;-71
2021/08/19 01:36:00;;;;;;;2.80;2.50;;;;;;;16.22;86.43;100309.56;5064058;28;20206;-71
2021/08/19 01:38:31;;;;;;;4.47;2.63;;;;;;;16.22;86.58;100314.84;5064566;28;20499;-71
2021/08/19 01:40:57;;;;;;;2.27;2.07;;;;;;;16.25;86.28;100312.00;5062289;28;20227;-70
2021/08/19 01:43:24;;;;;;;3.00;2.43;;;;;;;16.24;86.06;100315.59;5066895;28;20528;-71
2021/08/19 01:45:53;;;;;;;2.47;2.27;;;;;;;16.21;86.46;100313.13;5060456;28;20213;-71
2021/08/19 01:48:20;;;;;;;2.17;1.97;;;;;;;16.21;86.58;100315.75;5061722;28;20214;-70
2021/08/19 01:50:46;;;;;;;2.57;2.23;;;;;;;16.21;86.19;100319.22;5063412;28;20227;-71
2021/08/19 01:53:13;;;;;;;3.93;2.30;;;;;;;16.22;86.71;100317.47;5064792;28;20227;-71
2021/08/19 01:55:40;;;;;;;3.27;2.30;;;;;;;16.22;86.47;100317.47;5064945;28;20201;-71
2021/08/19 01:58:07;;;;;;;2.73;2.50;;;;;;;16.18;86.69;100318.53;5066952;28;20604;-71
2021/08/19 02:00:33;;;;;;;2.87;2.43;;;;;;;16.17;86.84;100315.06;5068121;28;20232;-71
2021/08/19 02:03:02;;;;;;;2.37;2.17;;;;;;;16.16;86.94;100323.03;5062170;28;20209;-71
2021/08/19 02:05:28;;;;;;;3.47;2.40;;;;;;;16.15;87.16;100327.47;5070231;28;20213;-71
2021/08/19 02:07:54;;;;;;;2.60;2.23;;;;;;;16.13;87.25;100317.94;5059122;28;20203;-71
2021/08/19 02:10:21;;;;;;;2.77;2.40;;;;;;;16.16;86.68;100316.00;5065450;28;20229;-71
2021/08/19 02:12:48;;;;;;;2.20;2.00;;;;;;;16.16;86.71;100317.78;5066843;28;20213;-71
2021/08/19 02:15:15;;;;;;;2.50;2.10;;;;;;;16.13;87.33;100313.56;5063500;28;20687;-71
2021/08/19 02:17:41;;;;;;;2.77;2.37;;;;;;;16.10;87.55;100311.06;5061846;28;20671;-71
2021/08/19 02:20:10;;;;;;;2.20;2.00;;;;;;;16.09;87.29;100307.59;5064075;28;20309;-71
2021/08/19 02:22:37;;;;;;;2.30;2.10;;;;;;;16.06;87.28;100306.94;5062809;28;20203;-71
2021/08/19 02:25:04;;;;;;;2.60;2.37;;;;;;;16.08;87.05;100308.53;5063732;28;20820;-71
2021/08/19 02:27:30;;;;;;;2.23;2.03;;;;;;;16.06;87.01;100310.41;5069857;28;20817;-71
2021/08/19 02:29:57;;;;;;;2.60;2.20;;;;;;;16.03;87.09;100302.66;5064077;28;20312;-70
2021/08/19 02:32:24;;;;;;;3.27;2.10;;;;;;;16.01;87.29;100301.06;5067204;28;20457;-71
2021/08/19 02:34:52;;;;;;;2.33;2.10;;;;;;;15.98;87.66;100302.06;5061000;28;20201;-72
2021/08/19 02:37:20;;;;;;;2.80;2.07;;;;;;;15.95;88.03;100298.75;5057679;28;20714;-71
2021/08/19 02:39:46;;;;;;;3.07;2.67;;;;;;;15.89;87.71;100303.41;5064299;28;20198;-71
2021/08/19 02:42:13;;;;;;;2.47;2.27;;;;;;;15.86;87.81;100300.09;5064840;28;20205;-71
2021/08/19 02:44:39;;;;;;;3.67;2.30;;;;;;;15.81;88.34;100310.00;5064959;28;20209;-71
2021/08/19 02:47:06;;;;;;;2.63;2.40;;;;;;;15.73;88.38;100302.50;5061231;28;20216;-71
2021/08/19 02:49:33;;;;;;;2.80;2.50;;;;;;;15.68;88.90;100299.25;5069276;28;20226;-72
2021/08/19 02:52:00;;;;;;;3.10;2.80;;;;;;;15.63;89.30;100304.75;5057808;28;20222;-71
2021/08/19 02:54:27;;;;;;;4.30;2.60;;;;;;;15.60;89.76;100304.06;5062370;28;20686;-71
2021/08/19 02:56:54;;;;;;;2.67;2.40;;;;;;;15.58;89.31;100295.41;5061157;28;20206;-72
2021/08/19 02:59:20;;;;;;;4.50;2.83;;;;;;;15.53;89.58;100299.13;5061715;28;20714;-70
2021/08/19 03:01:46;;;;;;;3.67;2.63;;;;;;;15.48;90.27;100293.25;5062059;28;20221;-71
2021/08/19 03:04:13;;;;;;;2.40;2.20;;;;;;;15.40;90.43;100298.06;5061366;28;20667;-70
2021/08/19 03:06:39;;;;;;;4.13;2.70;;;;;;;15.37;90.56;100292.94;5064327;28;20570;-71
2021/08/19 03:09:05;;;;;;;2.50;2.30;;;;;;;15.31;91.28;100288.88;5062275;28;20204;-71
2021/08/19 03:11:33;;;;;;;3.50;2.63;;;;;;;15.26;91.24;100296.13;5065908;28;20572;-71
2021/08/19 03:14:00;;;;;;;2.60;2.40;;;;;;;15.22;91.42;100299.00;5065020;28;20216;-71
2021/08/19 03:16:26;;;;;;;3.13;2.63;;;;;;;15.18;92.06;100295.69;5069982;28;20199;-71
2021/08/19 03:18:52;;;;;;;3.57;2.70;;;;;;;15.17;92.26;100296.59;5062217;28;20860;-71
2021/08/19 03:21:20;;;;;;;2.80;2.53;;;;;;;15.18;92.63;100293.06;5063156;28;20750;-70
2021/08/19 03:23:47;;;;;;;3.37;2.67;;;;;;;15.25;92.80;100304.09;5058111;28;20688;-71
2021/08/19 03:26:14;;;;;;;2.90;2.60;;;;;;;15.29;92.72;100306.50;5058817;28;20221;-70
2021/08/19 03:28:42;;;;;;;2.83;2.63;;;;;;;15.32;92.72;100303.72;5065829;28;20434;-71
2021/08/19 03:31:08;;;;;;;3.30;2.83;;;;;;;15.36;92.58;100295.69;5063265;28;20234;-71
2021/08/19 03:33:37;;;;;;;2.70;2.50;;;;;;;15.42;91.82;100300.59;5064171;28;20200;-71
2021/08/19 03:36:04;;;;;;;3.90;2.50;;;;;;;15.45;92.00;100300.47;5063143;28;20379;-70
2021/08/19 03:38:30;;;;;;;3.53;2.70;;;;;;;15.47;91.63;100307.31;5067758;28;20229;-71
2021/08/19 03:40:56;;;;;;;2.73;2.37;;;;;;;15.50;91.45;100306.31;5061171;28;20218;-71
2021/08/19 03:43:23;;;;;;;3.10;2.73;;;;;;;15.51;91.24;100305.38;5063739;28;20824;-71
2021/08/19 03:45:51;;;;;;;3.07;2.60;;;;;;;15.53;91.08;100304.38;5060221;28;20597;-71
2021/08/19 03:48:17;;;;;;;3.30;3.00;;;;;;;15.53;90.94;100307.00;5066069;28;20208;-71
2021/08/19 03:50:44;;;;;;;3.83;3.10;;;;;;;15.49;91.38;100307.25;5059645;28;20705;-71
2021/08/19 03:53:10;;;;;;;3.40;2.63;;;;;;;15.50;91.88;100306.31;5058528;28;20203;-71
2021/08/19 03:55:36;;;;;;;3.53;2.70;;;;;;;15.48;91.48;100301.16;5059373;28;20205;-71
2021/08/19 03:58:03;;;;;;;4.10;3.13;;;;;;;15.49;91.72;100299.34;5061364;28;20229;-71
2021/08/19 04:00:30;;;;;;;3.10;2.80;;;;;;;15.50;91.51;100303.69;5064583;28;20280;-71
2021/08/19 04:02:58;;;;;;;3.27;2.97;;;;;;;15.49;91.82;100307.25;5059165;28;20202;-71
2021/08/19 04:05:24;;;;;;;4.27;2.97;;;;;;;15.48;91.25;100305.56;5061379;28;20453;-71
2021/08/19 04:07:50;;;;;;;3.63;3.07;;;;;;;15.48;91.68;100305.56;5057287;28;20203;-71
2021/08/19 04:10:18;;;;;;;3.37;3.07;;;;;;;15.47;91.25;100311.72;5064152;28;20242;-71
2021/08/19 04:12:44;;;;;;;4.07;3.43;;;;;;;15.45;91.35;100311.81;5061718;28;20205;-71
2021/08/19 04:15:11;;;;;;;4.07;3.10;;;;;;;15.44;91.19;100317.13;5058244;28;20572;-71
2021/08/19 04:17:38;;;;;;;3.93;3.53;;;;;;;15.41;91.64;100314.66;5059312;28;20208;-71
2021/08/19 04:20:08;;;;;;;4.83;3.17;;;;;;;15.38;91.31;100315.69;5056444;28;20224;-71
2021/08/19 04:22:35;;;;;;;3.90;3.17;;;;;;;15.39;91.33;100314.75;5059210;28;20211;-70
2021/08/19 04:25:02;;;;;;;3.97;3.57;;;;;;;15.40;91.09;100316.44;5059932;28;20297;-71
2021/08/19 04:27:28;;;;;;;4.60;3.50;;;;;;;15.42;91.20;100319.84;5056328;28;20206;-71
2021/08/19 04:29:54;;;;;;;4.10;3.17;;;;;;;15.43;91.16;100321.53;5063082;28;20725;-71
2021/08/19 04:32:21;;;;;;;3.83;3.37;;;;;;;15.45;91.24;100316.22;5068644;28;20674;-71
2021/08/19 04:34:47;;;;;;;4.20;3.60;;;;;;;15.49;91.29;100318.59;5057125;28;20193;-71
2021/08/19 04:37:15;;;;;;;4.40;3.90;;;;;;;15.52;91.30;100315.81;5061195;28;21504;-70
2021/08/19 04:39:42;;;;;;;4.90;3.90;;;;;;;15.53;91.40;100314.91;5058400;28;20212;-71
2021/08/19 04:42:08;;;;;;;4.00;3.23;;;;;;;15.56;91.02;100316.50;5061556;28;20210;-71
2021/08/19 04:44:34;;;;;;;4.30;3.30;;;;;;;15.60;90.53;100315.44;5060746;28;20285;-71
2021/08/19 04:47:01;;;;;;;4.40;3.80;;;;;;;15.63;90.57;100320.50;5060596;28;20871;-71
2021/08/19 04:49:27;;;;;;;4.03;3.13;;;;;;;15.65;90.29;100326.53;5061339;28;20565;-71
2021/08/19 04:51:53;;;;;;;5.83;3.83;;;;;;;15.69;90.60;100329.88;5045873;28;20709;-71
2021/08/19 04:54:21;;;;;;;4.00;3.60;;;;;;;15.69;89.90;100328.09;5062372;28;20816;-71
2021/08/19 04:56:48;;;;;;;5.00;3.60;;;;;;;15.75;89.34;100334.81;5060997;28;20229;-71
2021/08/19 04:59:14;;;;;;;4.33;3.53;;;;;;;15.78;89.72;100333.84;5060688;28;20305;-70
2021/08/19 05:01:41;;;;;;;3.87;3.47;;;;;;;15.82;89.22;100330.09;5060741;28;20218;-71
2021/08/19 05:04:08;;;;;;;5.53;3.70;;;;;;;15.84;89.18;100333.50;5061927;28;20630;-71
2021/08/19 05:06:35;;;;;;;4.00;3.60;;;;;;;15.88;89.22;100335.03;5062415;28;20223;-70
2021/08/19 05:09:04;;;;;;;5.20;3.80;;;;;;;15.93;89.69;100334.78;5062769;28;20805;-71
2021/08/19 05:11:32;;;;;;;3.50;3.20;;;;;;;15.95;89.09;100336.41;5057251;28;20218;-70
2021/08/19 05:13:59;;;;;;;5.43;3.50;;;;;;;15.96;88.70;100337.25;5058745;28;20210;-71
2021/08/19 05:16:26;;;;;;;7.27;3.70;;;;;;;15.96;88.34;100345.16;5062905;28;20244;-71
2021/08/19 05:18:53;;;;;;;4.90;3.70;;;;;;;15.98;87.90;100341.50;5059263;28;20202;-71
2021/08/19 05:21:19;;;;;;;4.40;3.53;;;;;;;16.01;88.20;100343.13;5064194;28;20478;-71
2021/08/19 05:23:46;;;;;;;4.27;3.87;;;;;;;16.03;88.34;100334.22;5065224;28;20204;-71
2021/08/19 05:26:13;;;;;;;4.77;3.60;;;;;;;16.11;88.12;100331.16;5063635;28;20659;-70
2021/08/19 05:28:40;;;;;;;4.53;3.83;;;;;;;16.17;87.75;100333.47;5060400;28;20208;-72
2021/08/19 05:31:08;;;;;;;4.20;3.80;;;;;;;16.22;87.17;100343.75;5064798;28;20225;-70
2021/08/19 05:33:35;;;;;;;4.07;3.67;;;;;;;16.26;87.66;100343.50;5066698;28;20232;-71
2021/08/19 05:36:01;;;;;;;4.07;3.50;;;;;;;16.29;87.44;100347.75;5061688;28;20212;-71
2021/08/19 05:38:28;;;;;;;4.77;4.07;;;;;;;16.36;86.47;100345.63;5067597;28;20206;-71
2021/08/19 05:40:54;;;;;;;6.47;4.20;;;;;;;16.42;86.65;100347.94;5060421;28;20236;-71
2021/08/19 05:43:21;;;;;;;5.87;4.67;;;;;;;16.47;86.28;100351.16;5062502;28;20229;-72
2021/08/19 05:45:49;;;;;;;4.23;3.67;;;;;;;16.54;86.13;100346.41;5063508;28;20724;-72
2021/08/19 05:48:15;;;;;;;4.50;4.07;;;;;;;16.58;85.54;100350.56;5063764;28;20634;-71
2021/08/19 05:50:41;;;;;;;5.67;3.87;;;;;;;16.65;85.70;100355.38;5063497;28;20221;-72
2021/08/19 05:53:08;;;;;;;5.13;4.10;;;;;;;16.69;85.11;100353.44;5058634;28;20214;-71
2021/08/19 05:55:34;;;;;;;4.07;3.67;;;;;;;16.75;85.21;100357.53;5066906;28;20221;-71
2021/08/19 05:58:01;;;;;;;4.83;3.87;;;;;;;16.78;84.38;100362.59;5063555;28;20207;-71
2021/08/19 06:00:27;;;;;;;6.93;3.87;;;;;;;16.85;84.68;100358.75;5064759;28;20234;-71
2021/08/19 06:02:55;;;;;;;4.20;3.73;;;;;;;16.88;84.55;100363.81;5061696;28;20206;-71
2021/08/19 06:05:21;;;;;;;4.37;3.97;;;;;;;16.90;83.81;100361.09;5069231;28;20670;-71
2021/08/19 06:07:48;;;;;;;4.57;4.00;;;;;;;16.94;83.84;100363.47;5062737;28;20203;-72
2021/08/19 06:10:14;;;;;;;6.57;4.07;;;;;;;17.02;84.11;100360.41;5067931;28;20714;-71
2021/08/19 06:12:42;;;;;;;5.73;3.90;;;;;;;17.08;82.92;100364.47;5062757;28;20646;-71
2021/08/19 06:15:10;;;;;;;4.03;3.67;;;;;;;17.15;84.24;100366.66;5061290;28;20206;-71
2021/08/19 06:17:37;;;;;;;3.77;3.20;;;;;;;17.18;83.45;100365.63;5062604;28;20215;-71
2021/08/19 06:20:06;;;;;;;5.30;3.60;;;;;;;17.23;82.64;100363.59;5062808;28;20849;-71
2021/08/19 06:22:32;;;;;;;4.30;3.90;;;;;;;17.22;82.47;100368.00;5061520;28;20222;-72
2021/08/19 06:24:59;;;;;;;4.80;3.60;;;;;;;17.28;82.77;100368.59;5061436;28;20210;-72
2021/08/19 06:27:25;;;;;;;3.73;3.20;;;;;;;17.32;81.77;100372.72;5069539;28;20220;-71
2021/08/19 06:29:52;;;;;;;4.63;3.27;;;;;;;17.31;81.54;100366.63;5057677;28;20213;-72
2021/08/19 06:32:18;;;;;;;4.00;3.60;;;;;;;17.31;81.38;100376.31;5062076;28;20658;-71
2021/08/19 06:34:44;;;;;;;4.47;3.97;;;;;;;17.20;81.40;100376.91;5059026;28;20202;-72
2021/08/19 06:37:12;;;;;;;5.47;3.67;;;;;;;17.16;82.03;100376.25;5062071;28;20276;-72
2021/08/19 06:39:38;;;;;;;4.97;4.07;;;;;;;17.10;81.93;100379.25;5060256;28;20204;-72
2021/08/19 06:42:05;;;;;;;4.07;3.67;;;;;;;17.05;82.07;100370.75;5064425;28;20225;-72
2021/08/19 06:44:31;;;;;;;5.67;3.80;;;;;;;17.09;82.63;100372.28;5059271;28;20229;-73
2021/08/19 06:46:58;;;;;;;4.93;3.57;;;;;;;17.11;82.36;100365.13;5060570;28;20210;-72
2021/08/19 06:49:24;;;;;;;4.00;3.13;;;;;;;17.17;81.96;100364.78;5070176;28;20213;-71
2021/08/19 06:51:50;;;;;;;4.43;3.47;;;;;;;17.29;82.25;100365.00;5059447;28;20223;-71
2021/08/19 06:54:18;;;;;;;4.57;3.40;;;;;;;17.37;82.21;100368.88;5065338;28;20210;-72
2021/08/19 06:56:45;;;;;;;6.60;3.53;;;;;;;17.42;81.72;100364.19;5059884;28;20210;-71
2021/08/19 06:59:11;;;;;;;4.80;3.63;;;;;;;17.45;81.25;100368.47;5069421;28;20210;-70
2021/08/19 07:01:37;;;;;;;3.87;3.47;;;;;;;17.53;82.14;100363.56;5064870;28;20706;-71
2021/08/19 07:04:04;;;;;;;3.77;3.37;;;;;;;17.62;82.00;100367.44;5059105;28;20232;-72
2021/08/19 07:06:30;;;;;;;4.50;3.47;;;;;;;17.58;80.48;100371.22;5066186;28;20207;-72
2021/08/19 07:08:57;;;;;;;4.80;3.47;;;;;;;17.59;80.53;100370.28;5058935;28;20222;-71
2021/08/19 07:11:25;;;;;;;4.07;3.67;;;;;;;17.63;80.59;100374.41;5061871;28;20230;-72
2021/08/19 07:13:51;;;;;;;4.40;3.30;;;;;;;17.69;80.28;100375.84;5059891;28;20202;-70
2021/08/19 07:16:17;;;;;;;4.47;3.40;;;;;;;17.76;80.52;100372.75;5066286;28;20206;-70
2021/08/19 07:18:44;;;;;;;3.63;3.27;;;;;;;17.81;80.61;100375.09;5060997;28;20208;-68
2021/08/19 07:21:10;;;;;;;3.60;3.20;;;;;;;17.91;79.50;100372.81;5063016;28;20225;-70
2021/08/19 07:23:37;;;;;;;3.93;3.30;;;;;;;18.02;79.71;100370.34;5063264;28;20206;-72
2021/08/19 07:26:03;;;;;;;4.80;3.60;;;;;;;18.12;78.79;100374.13;5065708;28;20203;-72
2021/08/19 07:28:31;;;;;;;3.87;3.47;;;;;;;18.27;78.23;100364.38;5067174;28;20652;-71
2021/08/19 07:30:57;;;;;;;4.57;3.30;;;;;;;18.33;76.90;100371.09;5063262;28;20258;-72
2021/08/19 07:33:23;;;;;;;3.67;3.37;;;;;;;18.49;78.17;100370.97;5069419;28;20211;-72
2021/08/19 07:35:50;;;;;;;4.00;3.37;;;;;;;18.62;77.22;100373.69;5062447;28;20214;-71
2021/08/19 07:38:18;;;;;;;3.50;3.13;;;;;;;18.74;76.53;100368.44;5062098;28;20213;-73
2021/08/19 07:40:45;;;;;;;3.93;3.27;;;;;;;18.92;75.04;100371.72;5060935;28;20226;-73
2021/08/19 07:43:12;;;;;;;4.47;3.13;;;;;;;19.13;74.30;100376.56;5070287;28;20206;-73
2021/08/19 07:45:40;;;;;;;4.47;3.20;;;;;;;19.10;71.66;100384.66;5062033;28;20198;-72
2021/08/19 07:48:10;;;;;;;3.60;3.30;;;;;;;19.07;72.41;100379.63;5065847;28;20207;-73
2021/08/19 07:50:36;;;;;;;3.27;2.90;;;;;;;19.09;71.96;100389.13;5061901;28;20225;-71
2021/08/19 07:53:03;;;;;;;3.63;3.00;;;;;;;19.11;72.93;100381.09;5062248;28;20718;-72
2021/08/19 07:55:29;;;;;;;4.23;3.03;;;;;;;19.11;71.20;100389.88;5059718;28;20209;-72
2021/08/19 07:57:56;;;;;;;3.63;3.07;;;;;;;19.07;71.77;100384.91;5059517;28;20207;-72
2021/08/19 08:00:25;;;;;;;3.20;2.90;;;;;;;19.12;71.91;100385.44;5063597;28;20241;-72
2021/08/19 08:02:53;;;;;;;3.90;3.17;;;;;;;19.39;70.76;100397.78;5062866;28;20225;-72
2021/08/19 08:05:19;;;;;;;2.67;2.47;;;;;;;19.59;70.19;100396.44;5063705;28;20209;-72
2021/08/19 08:07:46;;;;;;;3.70;3.10;;;;;;;19.75;70.79;100401.56;5058630;28;20206;-73
2021/08/19 08:10:13;;;;;;;3.73;2.73;;;;;;;19.91;69.97;100390.78;5063023;28;20586;-73
2021/08/19 08:12:40;;;;;;;3.53;3.07;;;;;;;19.90;70.34;100400.50;5062739;28;20218;-72
2021/08/19 08:15:08;;;;;;;4.20;3.10;;;;;;;19.90;69.15;100407.63;5065037;28;20206;-73
2021/08/19 08:17:35;;;;;;;3.67;3.07;;;;;;;19.81;69.94;100399.34;5065050;28;20208;-73
2021/08/19 08:20:04;;;;;;;4.63;2.90;;;;;;;19.78;69.50;100407.47;5060681;28;20202;-71
2021/08/19 08:22:30;;;;;;;4.70;3.30;;;;;;;19.66;69.78;100406.50;5068434;28;20206;-71
2021/08/19 08:24:57;;;;;;;3.50;3.20;;;;;;;19.56;69.11;100423.06;5062914;28;20724;-70
2021/08/19 08:27:23;;;;;;;3.87;2.90;;;;;;;19.57;69.61;100414.19;5067288;28;20629;-71
2021/08/19 08:29:50;;;;;;;3.83;3.10;;;;;;;19.63;70.22;100413.78;5062974;28;20197;-71
2021/08/19 08:32:16;;;;;;;3.50;3.10;;;;;;;19.54;70.53;100414.41;5063066;28;20305;-70
2021/08/19 08:34:42;;;;;;;3.53;3.23;;;;;;;19.47;70.38;100421.88;5063737;28;20198;-71
2021/08/19 08:37:12;;;;;;;4.10;2.77;;;;;;;19.50;70.54;100429.63;5058377;28;20751;-71
2021/08/19 08:39:38;;;;;;;5.93;3.07;;;;;;;19.42;69.48;100432.78;5065873;28;20198;-71
2021/08/19 08:42:07;;;;;;;5.30;2.90;;;;;;;19.45;69.68;100440.53;5062498;28;20698;-71
2021/08/19 08:44:34;;;;;;;4.30;3.60;;;;;;;19.39;69.48;100445.34;5065081;28;20552;-70
2021/08/19 08:47:02;;;;;;;4.30;2.97;;;;;;;19.43;70.55;100434.47;5063462;28;20743;-71
2021/08/19 08:49:29;;;;;;;3.70;2.93;;;;;;;19.41;70.79;100443.47;5066935;28;20664;-70
2021/08/19 08:51:57;;;;;;;3.50;2.83;;;;;;;19.37;69.56;100453.38;5060478;28;20214;-70
2021/08/19 08:54:28;;;;;;;3.57;2.77;;;;;;;19.32;70.23;100447.56;5071791;28;20198;-71
2021/08/19 08:56:54;;;;;;;3.30;3.00;;;;;;;19.32;70.22;100450.19;5061459;28;20289;-70
2021/08/19 08:59:20;;;;;;;3.13;2.80;;;;;;;19.29;70.35;100445.09;5063242;28;20225;-71
2021/08/19 09:01:47;;;;;;;3.97;2.90;;;;;;;19.29;70.11;100451.25;5066829;28;20222;-71
2021/08/19 09:04:13;;;;;;;3.77;3.33;;;;;;;19.22;70.47;100449.09;5061562;28;20209;-70
2021/08/19 09:06:41;;;;;;;3.53;3.17;;;;;;;19.16;69.68;100453.00;5066836;28;20442;-70
2021/08/19 09:09:16;;;;;;;3.27;2.97;;;;;;;19.06;70.34;100455.38;5061514;28;20498;-71
2021/08/19 09:11:45;;;;;;;4.37;3.20;;;;;;;19.09;70.65;100449.88;5064560;28;20216;-70
2021/08/19 09:14:16;;;;;;;3.77;3.00;;;;;;;19.03;70.26;100457.34;5061011;28;20207;-71
2021/08/19 09:16:46;;;;;;;3.87;2.80;;;;;;;19.02;70.47;100453.88;5058772;28;20199;-70
2021/08/19 09:19:13;;;;;;;5.80;2.93;;;;;;;18.89;70.65;100453.81;5066037;28;20565;-72
2021/08/19 09:21:46;;;;;;;3.90;3.20;;;;;;;18.83;71.20;100456.00;5063239;28;20222;-71
2021/08/19 09:24:14;;;;;;;4.63;3.10;;;;;;;18.78;70.83;100450.97;5068730;28;20199;-71
2021/08/19 09:26:40;;;;;;;3.07;2.70;;;;;;;18.72;71.18;100456.66;5063150;28;20206;-71
2021/08/19 09:29:18;;;;;;;4.50;3.27;;;;;;;18.67;71.38;100462.22;5064578;28;20207;-71
2021/08/19 09:31:45;;;;;;;3.17;2.67;;;;;;;18.69;71.54;100451.56;5059343;28;20551;-70
2021/08/19 09:34:11;;;;;;;3.03;2.73;;;;;;;18.74;71.89;100450.31;5067638;28;20631;-70
2021/08/19 09:36:38;;;;;;;3.33;2.93;;;;;;;18.73;72.04;100458.31;5067065;28;20220;-70
2021/08/19 09:39:05;;;;;;;3.43;3.03;;;;;;;18.66;71.70;100463.16;5067906;28;20209;-71
2021/08/19 09:41:31;;;;;;;4.50;3.10;;;;;;;18.68;71.83;100455.13;5065908;28;20234;-70
2021/08/19 09:43:59;;;;;;;3.97;3.00;;;;;;;18.72;71.83;100459.28;5067405;28;20222;-70
2021/08/19 09:46:37;;;;;;;4.77;3.00;;;;;;;18.78;72.34;100458.88;5067663;28;20715;-70
2021/08/19 09:49:20;;;;;;;3.43;3.13;;;;;;;18.95;71.68;100462.31;5051150;28;20296;-71
2021/08/19 09:52:00;;;;;;;4.23;2.97;;;;;;;19.07;71.02;100465.00;5076660;28;20611;-70
2021/08/19 09:54:30;;;;;;;3.37;2.90;;;;;;;19.20;71.25;100467.69;5064854;28;20630;-70
2021/08/19 09:56:57;;;;;;;6.33;2.97;;;;;;;19.17;71.51;100456.47;5069304;28;20210;-70
2021/08/19 09:59:25;;;;;;;3.20;2.90;;;;;;;19.10;71.46;100456.88;5061274;28;20207;-71
2021/08/19 10:01:54;;;;;;;3.60;2.97;;;;;;;19.22;71.28;100468.44;5069327;28;20805;-70
2021/08/19 10:04:23;;;;;;;4.00;3.10;;;;;;;19.35;70.69;100470.28;5063567;28;20192;-72
2021/08/19 10:06:50;;;;;;;3.47;2.73;;;;;;;19.38;69.89;100470.09;5063430;28;20210;-70
2021/08/19 10:09:16;;;;;;;3.67;3.00;;;;;;;19.44;69.87;100467.06;5066885;28;20771;-70
2021/08/19 10:11:44;;;;;;;4.30;3.10;;;;;;;19.61;69.18;100471.22;5067365;28;20218;-70
2021/08/19 10:14:13;;;;;;;5.03;3.13;;;;;;;19.44;68.60;100469.69;5069205;28;20521;-70
2021/08/19 10:16:41;;;;;;;3.50;2.90;;;;;;;19.53;68.35;100468.25;5069824;28;20204;-71
2021/08/19 10:19:11;;;;;;;5.30;3.13;;;;;;;19.42;67.92;100476.88;5065855;28;20222;-70
2021/08/19 10:21:43;;;;;;;3.27;2.70;;;;;;;19.32;68.33;100476.63;5060916;28;20222;-72
2021/08/19 10:24:11;;;;;;;4.40;3.20;;;;;;;19.37;68.39;100465.75;5063849;28;20211;-70
2021/08/19 10:26:38;;;;;;;3.33;2.60;;;;;;;19.39;69.08;100469.16;5071208;28;20202;-70
2021/08/19 10:29:04;;;;;;;3.10;2.63;;;;;;;19.46;69.19;100468.63;5062867;28;20589;-71
2021/08/19 10:31:44;;;;;;;5.07;2.57;;;;;;;19.65;68.89;100468.28;5070067;28;20706;-70
2021/08/19 10:34:13;;;;;;;2.63;2.40;;;;;;;19.87;69.08;100474.78;5062699;28;20281;-71
2021/08/19 10:36:55;;;;;;;2.80;2.50;;;;;;;19.86;68.63;100481.88;5061163;28;20631;-70
2021/08/19 10:39:41;;;;;;;2.57;2.30;;;;;;;19.88;69.15;100480.94;5065540;28;20198;-70
2021/08/19 10:42:27;;;;;;;2.33;2.13;;;;;;;19.89;68.83;100479.97;5064107;28;20214;-70
2021/08/19 10:44:53;;;;;;;3.07;2.77;;;;;;;19.68;69.01;100476.00;5062840;28;20211;-70
2021/08/19 10:47:37;;;;;;;3.37;2.67;;;;;;;19.55;69.66;100472.47;5063268;28;20198;-71
2021/08/19 10:50:30;;;;;;;4.37;2.53;;;;;;;19.33;70.46;100478.34;5065848;28;20602;-70
2021/08/19 10:52:58;;;;;;;2.60;2.33;;;;;;;19.22;70.66;100484.28;5064627;28;20246;-70
2021/08/19 10:55:25;;;;;;;3.53;2.90;;;;;;;19.07;70.93;100482.66;5061457;28;20209;-70
2021/08/19 10:57:54;;;;;;;3.00;2.70;;;;;;;19.07;71.61;100478.22;5064332;28;20199;-70
2021/08/19 11:00:38;;;;;;;4.10;3.10;;;;;;;19.08;72.69;100482.56;5064980;28;20222;-70
2021/08/19 11:03:04;;;;;;;3.70;3.17;;;;;;;19.06;72.97;100473.03;5070289;28;20562;-70
2021/08/19 11:05:55;;;;;;;3.57;2.77;;;;;;;19.11;73.62;100470.94;5066890;28;20206;-71
2021/08/19 11:08:48;;;;;;;3.50;3.13;;;;;;;19.07;74.11;100478.22;5063101;28;20199;-70
2021/08/19 11:11:35;;;;;;;3.77;3.17;;;;;;;19.07;74.21;100480.84;5071219;28;20225;-70
2021/08/19 11:14:07;;;;;;;3.10;2.70;;;;;;;19.02;75.30;100479.47;5066028;28;20214;-70
2021/08/19 11:16:34;;;;;;;3.20;2.80;;;;;;;19.01;75.23;100480.38;5067828;28;20210;-70
2021/08/19 11:19:18;;;;;;;2.97;2.67;;;;;;;19.14;74.47;100491.00;5066428;28;20202;-70
2021/08/19 11:21:51;;;;;;;2.70;2.50;;;;;;;19.20;73.92;100488.84;5058781;28;20223;-70
2021/08/19 11:24:18;;;;;;;2.93;2.60;;;;;;;19.15;73.57;100482.16;5066348;28;20277;-70
2021/08/19 11:26:57;;;;;;;4.00;2.70;;;;;;;19.24;73.85;100482.41;5064420;28;20566;-70